Time;durP1;ratioP1;P1;durP2;ratioP2;P2;SDS_P1;SDS_P2;PMS_P1;PMS_P2;Temp;Humidity;BMP_temperature;BMP_pressure;BME280_temperature;BME280_humidity;BME280_pressure;Samples;Min_cycle;Max_cycle;Signal;HPM_P1;HPM_P2
2021/10/10 00:02:20;;;;;;;3.03;2.20;;;23.70;38.90;27.80;94598.00;;;;10368305;28;75595;-65
2021/10/10 00:07:21;;;;;;;2.65;1.90;;;23.70;39.00;27.80;94598.00;;;;10367508;28;74519;-65
2021/10/10 00:12:21;;;;;;;3.17;2.05;;;23.60;38.90;27.80;94602.00;;;;10367923;28;75278;-65
2021/10/10 00:17:22;;;;;;;3.17;2.28;;;23.70;39.00;27.80;94589.00;;;;10351939;28;47482;-65
2021/10/10 00:22:23;;;;;;;4.15;2.35;;;23.60;39.00;27.80;94609.00;;;;10353203;28;45404;-66
2021/10/10 00:27:24;;;;;;;3.40;2.30;;;23.70;39.00;27.80;94605.00;;;;10352642;28;75631;-65
2021/10/10 00:32:24;;;;;;;3.13;2.15;;;23.60;39.00;27.70;94603.00;;;;10352495;28;75559;-65
2021/10/10 00:37:25;;;;;;;3.63;2.00;;;23.60;38.90;27.70;94598.00;;;;10352780;28;51171;-65
2021/10/10 00:42:26;;;;;;;3.45;2.20;;;23.60;39.00;27.70;94601.00;;;;10367811;28;45626;-65
2021/10/10 00:47:27;;;;;;;2.95;1.88;;;23.50;38.90;27.70;94597.00;;;;10366932;28;74740;-65
2021/10/10 00:52:29;;;;;;;3.17;2.15;;;23.50;38.90;27.70;94579.00;;;;10368032;28;45436;-65
2021/10/10 00:57:31;;;;;;;4.10;2.17;;;23.50;38.90;27.70;94579.00;;;;10366668;28;75291;-65
2021/10/10 01:02:32;;;;;;;3.92;2.30;;;23.50;38.90;27.60;94577.00;;;;10360582;28;75627;-65
2021/10/10 01:07:33;;;;;;;3.65;2.20;;;23.50;39.00;27.60;94577.00;;;;10365632;28;69539;-65
2021/10/10 01:12:34;;;;;;;3.28;2.20;;;23.50;38.90;27.60;94576.00;;;;10366531;28;75411;-65
2021/10/10 01:17:35;;;;;;;3.30;2.00;;;23.50;38.90;27.60;94565.00;;;;10349418;28;50066;-65
2021/10/10 01:22:36;;;;;;;3.05;2.10;;;23.50;38.90;27.60;94578.00;;;;10351597;28;45398;-65
2021/10/10 01:27:38;;;;;;;2.95;2.10;;;23.50;38.90;27.60;94562.00;;;;10350568;28;55203;-65
2021/10/10 01:32:38;;;;;;;2.55;1.73;;;23.50;38.90;27.60;94569.00;;;;10350644;28;51080;-64
2021/10/10 01:37:39;;;;;;;2.58;1.95;;;23.50;38.90;27.60;94564.00;;;;10349078;28;75248;-65
2021/10/10 01:42:40;;;;;;;3.05;1.98;;;23.40;38.90;27.60;94565.00;;;;10349407;28;48045;-65
2021/10/10 01:47:41;;;;;;;3.65;1.98;;;23.40;38.90;27.60;94552.00;;;;10365534;28;75342;-66
2021/10/10 01:52:44;;;;;;;2.70;1.98;;;23.40;38.80;27.50;94541.00;;;;10366377;28;46351;-65
2021/10/10 01:57:45;;;;;;;3.45;2.15;;;23.40;38.90;27.50;94547.00;;;;10366394;28;45373;-65
2021/10/10 02:02:46;;;;;;;2.42;1.83;;;23.40;38.90;27.50;94552.00;;;;10366306;28;45461;-65
2021/10/10 02:07:48;;;;;;;3.33;2.20;;;23.40;38.90;27.50;94549.00;;;;10365798;28;74138;-65
2021/10/10 02:12:50;;;;;;;3.85;2.22;;;23.40;39.00;27.50;94536.00;;;;10366030;28;45602;-66
2021/10/10 02:17:50;;;;;;;2.95;1.98;;;23.30;39.00;27.50;94527.00;;;;10365340;28;52886;-66
2021/10/10 02:22:51;;;;;;;3.97;2.20;;;23.30;39.00;27.50;94535.00;;;;10364353;28;74330;-66
2021/10/10 02:27:52;;;;;;;3.30;2.00;;;23.30;39.00;27.50;94525.00;;;;10349250;28;74184;-67
2021/10/10 02:32:52;;;;;;;3.10;2.25;;;23.30;39.00;27.60;94537.00;;;;10355513;28;74393;-66
2021/10/10 02:37:53;;;;;;;2.95;1.90;;;23.30;38.90;27.60;94534.00;;;;10354645;28;73236;-67
2021/10/10 02:42:54;;;;;;;3.38;1.90;;;23.30;38.80;27.60;94543.00;;;;10355023;28;74217;-67
2021/10/10 02:47:54;;;;;;;3.72;2.00;;;23.30;38.80;27.60;94540.00;;;;10355195;28;48426;-66
2021/10/10 02:52:55;;;;;;;2.97;2.00;;;23.40;38.70;27.60;94539.00;;;;10370955;28;74177;-66
2021/10/10 02:57:57;;;;;;;3.47;2.25;;;23.40;38.70;27.60;94533.00;;;;10372007;28;45594;-66
2021/10/10 03:02:57;;;;;;;2.65;2.05;;;23.30;38.70;27.60;94544.00;;;;10370545;28;74208;-66
2021/10/10 03:07:58;;;;;;;2.97;2.03;;;23.40;38.60;27.60;94541.00;;;;10356581;28;46363;-67
2021/10/10 03:12:59;;;;;;;4.38;2.10;;;23.40;38.60;27.60;94538.00;;;;10354954;28;47236;-67
2021/10/10 03:17:59;;;;;;;3.38;2.20;;;23.40;38.50;27.60;94548.00;;;;10370349;28;67905;-66
2021/10/10 03:23:00;;;;;;;3.22;1.95;;;23.40;38.50;27.60;94544.00;;;;10420809;22;66977;-62
2021/10/10 03:28:01;;;;;;;3.50;1.80;;;23.40;38.40;27.70;94545.00;;;;10393429;28;73812;-62
2021/10/10 03:33:01;;;;;;;2.35;1.80;;;23.40;38.40;27.70;94550.00;;;;10394322;28;74456;-62
2021/10/10 03:38:03;;;;;;;2.40;1.90;;;23.40;38.30;27.70;94545.00;;;;10392525;28;73865;-63
2021/10/10 03:43:03;;;;;;;2.38;1.88;;;23.40;38.30;27.70;94551.00;;;;10393295;28;45635;-62
2021/10/10 03:48:05;;;;;;;3.92;2.00;;;23.40;38.20;27.70;94556.00;;;;10392773;28;73071;-62
2021/10/10 03:53:05;;;;;;;3.58;2.10;;;23.40;38.20;27.70;94541.00;;;;10393715;28;45544;-62
2021/10/10 03:58:08;;;;;;;2.72;1.90;;;23.40;38.20;27.70;94558.00;;;;10393554;28;49780;-62
2021/10/10 04:03:10;;;;;;;2.40;1.98;;;23.40;38.10;27.70;94555.00;;;;10394127;28;45301;-62
2021/10/10 04:08:11;;;;;;;3.35;2.00;;;23.40;38.10;27.70;94551.00;;;;10394062;28;45343;-62
2021/10/10 04:13:12;;;;;;;3.47;2.00;;;23.30;38.00;27.70;94547.00;;;;10392721;28;45323;-62
2021/10/10 04:18:12;;;;;;;2.67;1.88;;;23.40;38.10;27.70;94547.00;;;;10392452;28;54727;-62
2021/10/10 04:23:13;;;;;;;3.80;2.00;;;23.50;38.20;27.70;94538.00;;;;10391578;28;75696;-62
2021/10/10 04:28:13;;;;;;;2.95;2.05;;;23.50;38.10;27.80;94543.00;;;;10393037;28;75445;-62
2021/10/10 04:33:14;;;;;;;3.17;1.80;;;23.60;38.00;27.80;94534.00;;;;10391295;28;74030;-62
2021/10/10 04:38:16;;;;;;;2.28;1.75;;;23.60;38.00;27.80;94548.00;;;;10390827;28;75236;-62
2021/10/10 04:43:17;;;;;;;3.05;1.80;;;23.60;37.90;27.90;94545.00;;;;10392654;28;75871;-62
2021/10/10 04:48:17;;;;;;;3.05;1.73;;;23.70;38.00;27.90;94551.00;;;;10390982;28;75556;-62
2021/10/10 04:53:18;;;;;;;3.00;2.00;;;23.70;37.90;27.90;94546.00;;;;10391839;28;45591;-62
2021/10/10 04:58:19;;;;;;;2.63;2.00;;;23.70;37.80;28.00;94548.00;;;;10391680;28;74370;-62
2021/10/10 05:03:19;;;;;;;2.22;1.75;;;23.70;37.70;28.00;94550.00;;;;10389794;28;74305;-62
2021/10/10 05:08:20;;;;;;;3.22;2.00;;;23.80;37.70;28.00;94555.00;;;;10377406;28;75316;-62
2021/10/10 05:13:21;;;;;;;3.25;1.67;;;23.80;37.60;28.00;94554.00;;;;10383548;28;74629;-62
2021/10/10 05:18:22;;;;;;;2.40;1.83;;;23.80;37.50;28.10;94553.00;;;;10402649;28;76066;-62
2021/10/10 05:23:22;;;;;;;2.90;1.67;;;23.80;37.50;28.10;94550.00;;;;10384149;28;55021;-62
2021/10/10 05:28:23;;;;;;;2.72;1.90;;;23.80;37.50;28.10;94560.00;;;;10385715;28;75582;-62
2021/10/10 05:33:24;;;;;;;3.35;1.92;;;23.80;37.40;28.10;94546.00;;;;10369033;28;75039;-62
2021/10/10 05:38:27;;;;;;;4.10;1.85;;;23.90;37.40;28.10;94542.00;;;;10386641;28;46932;-62
2021/10/10 05:43:28;;;;;;;3.03;2.05;;;23.90;37.30;28.20;94544.00;;;;10385814;28;45600;-62
2021/10/10 05:48:28;;;;;;;3.40;2.13;;;23.90;37.30;28.20;94542.00;;;;10370732;28;70782;-62
2021/10/10 05:53:29;;;;;;;2.80;1.83;;;23.90;37.20;28.20;94556.00;;;;10384268;28;75280;-62
2021/10/10 05:58:33;;;;;;;3.47;1.70;;;23.90;37.10;28.20;94559.00;;;;10382280;28;45671;-62
2021/10/10 06:03:37;;;;;;;3.13;2.10;;;23.90;37.00;28.20;94556.00;;;;10379336;28;45326;-62
2021/10/10 06:08:38;;;;;;;3.35;2.00;;;23.90;36.90;28.20;94554.00;;;;10389706;28;46413;-62
2021/10/10 06:13:38;;;;;;;2.92;1.70;;;23.90;37.60;28.20;94573.00;;;;10411854;28;50728;-62
2021/10/10 06:18:40;;;;;;;3.65;1.80;;;23.90;36.70;28.20;94578.00;;;;10396384;28;57029;-62
2021/10/10 06:23:40;;;;;;;3.13;1.90;;;23.90;36.70;28.20;94586.00;;;;10395822;28;45455;-62
2021/10/10 06:28:41;;;;;;;2.50;1.80;;;23.90;36.50;28.20;94575.00;;;;10393446;28;68562;-62
2021/10/10 06:33:42;;;;;;;3.08;1.80;;;24.00;36.50;28.20;94580.00;;;;10396204;28;75324;-63
2021/10/10 06:38:43;;;;;;;2.80;1.73;;;23.90;36.60;28.30;94588.00;;;;10376562;28;75368;-63
2021/10/10 06:43:44;;;;;;;3.78;1.73;;;24.00;36.70;28.30;94584.00;;;;10386521;28;47201;-63
2021/10/10 06:48:44;;;;;;;2.75;1.70;;;24.00;36.70;28.30;94593.00;;;;10395380;28;46165;-63
2021/10/10 06:53:45;;;;;;;2.65;1.70;;;24.10;36.80;28.40;94595.00;;;;10382189;28;49640;-62
2021/10/10 06:58:46;;;;;;;3.38;2.20;;;24.10;36.80;28.40;94598.00;;;;10392927;28;75474;-64
2021/10/10 07:03:46;;;;;;;3.50;2.30;;;24.10;36.50;28.40;94610.00;;;;10375872;28;48379;-63
2021/10/10 07:08:47;;;;;;;3.13;2.20;;;24.10;36.40;28.40;94598.00;;;;10394210;28;75347;-65
2021/10/10 07:13:48;;;;;;;4.05;2.05;;;24.20;36.50;28.40;94605.00;;;;10395281;28;61110;-64
2021/10/10 07:18:51;;;;;;;3.20;2.05;;;24.20;36.60;28.40;94616.00;;;;10396178;28;54084;-64
2021/10/10 07:28:54;;;;;;;2.70;2.08;;;24.20;36.70;28.50;94609.00;;;;10394906;28;45361;-65
2021/10/10 07:33:55;;;;;;;4.45;2.05;;;24.20;36.80;28.50;94621.00;;;;10395043;28;75172;-64
2021/10/10 07:38:55;;;;;;;3.13;2.38;;;24.20;36.90;28.50;94625.00;;;;10395122;28;73093;-64
2021/10/10 07:43:56;;;;;;;3.47;1.90;;;24.20;37.00;28.50;94625.00;;;;10394558;28;75262;-64
2021/10/10 07:48:57;;;;;;;2.63;1.90;;;24.20;37.10;28.50;94629.00;;;;10394272;28;75793;-64
2021/10/10 07:53:57;;;;;;;3.03;1.80;;;24.20;37.20;28.50;94625.00;;;;10393812;28;75013;-65
2021/10/10 07:58:58;;;;;;;3.25;2.05;;;24.20;37.30;28.50;94617.00;;;;10393890;28;45440;-64
2021/10/10 08:03:59;;;;;;;3.30;2.20;;;24.20;37.30;28.50;94630.00;;;;10394881;28;46398;-64
2021/10/10 08:08:59;;;;;;;3.30;1.98;;;24.20;37.50;28.50;94636.00;;;;10393639;28;74468;-63
2021/10/10 08:14:00;;;;;;;2.65;1.60;;;24.20;37.50;28.50;94638.00;;;;10393915;28;74545;-63
2021/10/10 08:19:01;;;;;;;3.70;1.92;;;24.20;37.60;28.50;94633.00;;;;10394163;28;57182;-64
2021/10/10 08:24:02;;;;;;;2.88;1.77;;;24.20;37.60;28.50;94630.00;;;;10391411;28;75311;-64
2021/10/10 08:29:03;;;;;;;3.45;2.03;;;24.30;37.80;28.50;94639.00;;;;10375319;28;47981;-64
2021/10/10 08:34:04;;;;;;;2.78;2.00;;;24.30;37.80;28.50;94628.00;;;;10374993;28;64476;-64
2021/10/10 08:39:04;;;;;;;2.33;1.77;;;24.30;37.80;28.60;94632.00;;;;10390882;28;75211;-64
2021/10/10 08:44:07;;;;;;;1.80;1.60;;;24.30;37.90;28.60;94638.00;;;;10392501;28;69068;-64
2021/10/10 08:49:08;;;;;;;3.83;1.73;;;24.30;37.90;28.60;94649.00;;;;10392921;28;45358;-64
2021/10/10 08:54:09;;;;;;;2.70;1.70;;;24.30;38.00;28.60;94636.00;;;;10390805;28;65946;-64
2021/10/10 08:59:10;;;;;;;2.63;1.58;;;24.30;38.00;28.60;94635.00;;;;10392905;28;49665;-63
2021/10/10 09:04:11;;;;;;;2.58;1.88;;;24.30;38.10;28.60;94644.00;;;;10408163;28;47081;-64
2021/10/10 09:09:33;;;;;;;2.53;1.70;;;24.30;38.10;28.70;94649.00;;;;10390691;28;75416;-64
2021/10/10 09:14:49;;;;;;;2.30;1.60;;;24.30;38.10;28.70;94638.00;;;;10389008;28;45391;-65
2021/10/10 09:19:58;;;;;;;2.27;1.77;;;24.30;38.20;28.60;94638.00;;;;10372996;28;47508;-65
2021/10/10 09:25:10;;;;;;;2.47;1.80;;;24.30;38.20;28.60;94629.00;;;;10391798;28;47283;-64
2021/10/10 09:30:11;;;;;;;2.60;1.52;;;24.30;38.30;28.60;94639.00;;;;10374259;28;48286;-65
2021/10/10 09:35:28;;;;;;;2.25;1.60;;;24.30;38.30;28.70;94629.00;;;;10390744;28;48151;-64
2021/10/10 09:40:33;;;;;;;2.80;1.90;;;24.30;38.30;28.60;94639.00;;;;10390152;28;45292;-67
2021/10/10 09:45:53;;;;;;;3.45;1.80;;;24.30;38.40;28.60;94638.00;;;;10392302;28;45355;-63
2021/10/10 09:50:55;;;;;;;3.28;1.75;;;24.30;38.30;28.60;94640.00;;;;10382694;28;46335;-63
2021/10/10 09:56:06;;;;;;;2.30;1.60;;;24.30;38.40;28.60;94648.00;;;;10385376;28;45277;-63
2021/10/10 10:01:19;;;;;;;3.63;2.10;;;24.30;38.40;28.70;94651.00;;;;10383408;28;46242;-63
2021/10/10 10:06:20;;;;;;;2.58;1.83;;;24.30;38.40;28.60;94635.00;;;;10376424;28;45347;-63
2021/10/10 10:11:22;;;;;;;2.50;1.77;;;24.40;38.50;28.60;94635.00;;;;10384312;28;75253;-63
2021/10/10 10:16:23;;;;;;;3.63;1.95;;;24.40;38.60;28.60;94646.00;;;;10380058;28;45386;-63
2021/10/10 10:21:24;;;;;;;3.47;1.80;;;24.40;38.60;28.70;94652.00;;;;10392199;28;75804;-62
2021/10/10 10:26:32;;;;;;;3.17;1.70;;;24.40;38.60;28.70;94648.00;;;;10381788;28;47953;-64
2021/10/10 10:31:35;;;;;;;2.58;1.73;;;24.40;38.60;28.70;94636.00;;;;10386124;28;45433;-63
2021/10/10 10:37:01;;;;;;;2.47;1.70;;;24.40;38.60;28.80;94651.00;;;;10372453;28;45842;-63
2021/10/10 10:42:05;;;;;;;2.30;1.60;;;24.40;38.70;28.70;94640.00;;;;10374159;28;47423;-63
2021/10/10 10:47:13;;;;;;;2.72;1.67;;;24.40;38.70;28.70;94634.00;;;;10387815;28;45540;-64
2021/10/10 10:52:27;;;;;;;3.00;1.90;;;24.40;38.70;28.80;94656.00;;;;10380692;28;45438;-64
2021/10/10 10:57:35;;;;;;;2.60;1.75;;;24.40;38.80;28.80;94637.00;;;;10384438;28;46072;-63
2021/10/10 11:03:01;;;;;;;3.13;1.80;;;24.50;38.80;28.90;94648.00;;;;10369416;28;48114;-63
2021/10/10 11:08:08;;;;;;;2.67;1.80;;;24.50;38.80;28.80;94651.00;;;;10379772;28;45660;-63
2021/10/10 11:13:08;;;;;;;;;;;24.50;38.80;29.30;94644.00;;;;10393302;28;47512;-64
2021/10/10 11:18:09;;;;;;;3.03;1.73;;;24.50;38.80;28.90;94635.00;;;;10387149;28;46389;-63
2021/10/10 11:23:10;;;;;;;6.10;2.30;;;24.50;38.60;28.90;94631.00;;;;10377215;28;74975;-64
2021/10/10 11:28:11;;;;;;;2.97;2.10;;;24.50;38.20;28.90;94635.00;;;;10361427;28;68072;-64
2021/10/10 11:33:13;;;;;;;3.92;2.53;;;24.50;38.10;28.90;94626.00;;;;10243809;28;54024;-64
2021/10/10 11:38:15;;;;;;;4.93;2.50;;;24.40;37.80;28.80;94622.00;;;;10380391;28;46216;-64
2021/10/10 11:43:22;;;;;;;4.70;2.30;;;24.40;37.70;28.90;94632.00;;;;10377514;28;75586;-64
2021/10/10 11:48:34;;;;;;;5.18;2.55;;;24.40;37.70;28.90;94637.00;;;;10374949;28;45403;-64
2021/10/10 11:53:46;;;;;;;3.95;2.60;;;24.40;37.60;28.80;94644.00;;;;10368512;28;45708;-63
2021/10/10 11:58:46;;;;;;;5.60;2.40;;;24.40;37.70;28.80;94637.00;;;;10336612;28;47594;-64
2021/10/10 12:03:47;;;;;;;5.57;2.80;;;24.50;37.60;28.80;94636.00;;;;10352179;28;45483;-62
2021/10/10 12:08:48;;;;;;;5.75;2.50;;;24.40;38.20;28.90;94625.00;;;;10352304;28;48165;-63
2021/10/10 12:13:54;;;;;;;5.03;2.88;;;24.40;37.50;28.90;94614.00;;;;10353090;28;45485;-62
2021/10/10 12:18:58;;;;;;;4.93;2.70;;;24.40;37.40;28.90;94604.00;;;;10351681;28;56136;-62
2021/10/10 12:24:03;;;;;;;3.03;2.20;;;24.40;37.40;28.90;94609.00;;;;10360105;28;45342;-63
2021/10/10 12:29:17;;;;;;;4.85;2.70;;;24.50;37.50;29.00;94619.00;;;;10391832;28;45431;-64
2021/10/10 12:34:28;;;;;;;3.78;2.50;;;24.50;37.40;28.90;94606.00;;;;10393249;28;46389;-64
2021/10/10 12:39:40;;;;;;;5.00;2.60;;;24.50;37.40;29.00;94605.00;;;;10393715;28;45349;-63
2021/10/10 12:44:41;;;;;;;4.80;2.50;;;24.50;37.30;28.90;94606.00;;;;10390279;28;47089;-64
2021/10/10 12:49:42;;;;;;;5.22;2.60;;;24.50;37.30;29.00;94603.00;;;;10393695;28;45285;-63
2021/10/10 12:54:46;;;;;;;3.95;2.65;;;24.50;37.30;29.00;94610.00;;;;10379420;28;74390;-64
2021/10/10 13:00:02;;;;;;;3.95;2.70;;;24.50;37.40;29.00;94608.00;;;;10370514;28;45364;-64
2021/10/10 13:05:04;;;;;;;4.80;2.50;;;24.50;37.40;29.00;94597.00;;;;10389060;28;45409;-64
2021/10/10 13:10:05;;;;;;;5.85;2.75;;;24.60;37.40;29.00;94606.00;;;;10390617;28;52851;-64
2021/10/10 13:15:08;;;;;;;5.70;2.60;;;24.50;37.70;29.00;94595.00;;;;10385192;28;51216;-63
2021/10/10 13:20:09;;;;;;;6.28;2.85;;;24.60;38.10;28.90;94597.00;;;;10389083;28;48562;-63
2021/10/10 13:25:10;;;;;;;4.70;2.70;;;24.50;38.40;29.00;94613.00;;;;10390961;28;46708;-63
2021/10/10 13:30:11;;;;;;;4.32;2.45;;;24.60;38.70;29.00;94611.00;;;;10390070;28;54715;-62
2021/10/10 13:35:12;;;;;;;8.70;3.20;;;24.60;39.10;29.00;94613.00;;;;10390419;28;61064;-67
2021/10/10 13:53:56;;;;;;;3.75;2.20;;;24.20;37.80;26.00;94593.00;;;;10511175;28;45362;-70
2021/10/10 13:58:56;;;;;;;4.70;2.60;;;24.10;38.00;26.80;94588.00;;;;10464923;28;46993;-70
2021/10/10 14:03:57;;;;;;;5.10;2.40;;;24.40;37.40;27.10;94594.00;;;;10466567;28;47093;-70
2021/10/10 14:08:58;;;;;;;3.90;1.83;;;24.60;37.00;27.30;94593.00;;;;10449991;28;55535;-69
2021/10/10 14:13:58;;;;;;;3.38;1.85;;;24.60;37.30;27.40;94577.00;;;;10463561;28;73409;-75
2021/10/10 14:18:59;;;;;;;3.28;2.03;;;24.80;37.50;27.60;94590.00;;;;10448823;28;75790;-69
2021/10/10 14:24:00;;;;;;;2.42;1.65;;;24.90;38.00;27.70;94592.00;;;;10464473;28;75710;-70
2021/10/10 14:29:01;;;;;;;2.20;1.60;;;25.00;38.20;27.80;94581.00;;;;10469459;28;45359;-78
2021/10/10 14:34:02;;;;;;;3.67;1.52;;;25.00;38.90;27.80;94589.00;;;;10449750;28;47223;-67
2021/10/10 14:39:04;;;;;;;3.53;2.05;;;25.10;39.20;27.90;94596.00;;;;10466175;28;45570;-66
2021/10/10 14:44:20;;;;;;;5.88;2.10;;;25.00;39.10;27.90;94595.00;;;;10449004;28;47151;-66
2021/10/10 14:49:21;;;;;;;3.27;1.73;;;25.00;39.10;27.90;94593.00;;;;10467366;28;46156;-68
2021/10/10 14:54:21;;;;;;;4.07;2.00;;;25.10;39.10;27.90;94592.00;;;;10466094;28;74488;-66
2021/10/10 14:59:23;;;;;;;3.22;2.20;;;25.10;39.00;27.90;94602.00;;;;10466798;28;45487;-68
2021/10/10 15:04:23;;;;;;;2.88;2.10;;;25.20;39.20;27.90;94605.00;;;;10442962;28;75469;-69
2021/10/10 15:09:24;;;;;;;4.78;2.17;;;25.10;39.20;28.00;94586.00;;;;10437245;28;45351;-69
2021/10/10 15:14:25;;;;;;;3.58;2.20;;;25.20;39.00;28.10;94599.00;;;;10420332;28;47220;-71
2021/10/10 15:19:26;;;;;;;4.28;2.15;;;25.10;38.70;28.10;94605.00;;;;10418736;28;75548;-67
2021/10/10 15:24:26;;;;;;;4.38;2.33;;;25.20;38.40;28.10;94588.00;;;;10450810;22;71742;-68
2021/10/10 15:29:27;;;;;;;4.78;2.10;;;25.20;38.60;28.10;94589.00;;;;10419716;28;45285;-65
2021/10/10 15:34:31;;;;;;;4.05;2.33;;;25.20;38.80;28.10;94589.00;;;;10418936;28;75502;-74
2021/10/10 15:39:32;;;;;;;3.45;2.10;;;25.30;38.70;28.10;94596.00;;;;10414373;28;45409;-71
2021/10/10 15:44:32;;;;;;;3.70;2.05;;;25.20;39.10;28.10;94598.00;;;;10401928;28;47396;-65
2021/10/10 15:49:33;;;;;;;3.10;1.92;;;25.20;38.80;28.20;94591.00;;;;10399584;28;47014;-66
2021/10/10 15:54:34;;;;;;;2.70;1.85;;;25.30;38.90;28.20;94599.00;;;;10417934;28;74076;-65
2021/10/10 15:59:35;;;;;;;3.63;2.00;;;25.30;39.20;28.20;94598.00;;;;10400762;28;48160;-65
2021/10/10 16:04:36;;;;;;;3.92;1.98;;;25.30;39.30;28.20;94586.00;;;;10432517;28;45743;-65
2021/10/10 16:09:37;;;;;;;3.33;1.85;;;25.30;39.30;28.20;94588.00;;;;10431978;28;58362;-66
2021/10/10 16:14:37;;;;;;;4.45;2.30;;;25.20;39.20;28.20;94590.00;;;;10415135;28;75279;-64
2021/10/10 16:19:38;;;;;;;5.32;2.15;;;25.30;39.30;28.20;94599.00;;;;10434214;28;46495;-66
2021/10/10 16:24:39;;;;;;;4.55;2.05;;;25.40;39.40;28.20;94600.00;;;;10432909;28;75391;-65
2021/10/10 16:29:40;;;;;;;3.30;1.80;;;25.30;39.30;28.20;94606.00;;;;10435150;28;72807;-64
2021/10/10 16:34:47;;;;;;;3.33;2.00;;;25.20;39.20;28.20;94608.00;;;;10434491;28;74608;-65
2021/10/10 16:40:09;;;;;;;3.00;1.90;;;25.20;39.20;28.10;94612.00;;;;10435806;28;45350;-65
2021/10/10 16:45:09;;;;;;;2.40;1.73;;;25.20;39.10;28.10;94622.00;;;;10434075;28;45773;-65
2021/10/10 16:50:10;;;;;;;2.63;1.77;;;25.40;39.20;28.10;94631.00;;;;10433788;28;46081;-65
2021/10/10 16:55:11;;;;;;;2.63;1.85;;;25.20;39.10;28.10;94636.00;;;;10433798;28;45578;-66
2021/10/10 17:00:12;;;;;;;2.67;1.80;;;25.30;39.00;28.10;94625.00;;;;10432868;28;55229;-67
2021/10/10 17:05:13;;;;;;;3.30;2.13;;;25.20;39.00;28.10;94631.00;;;;10433852;28;45817;-67
2021/10/10 17:10:14;;;;;;;2.92;1.75;;;25.30;39.00;28.20;94633.00;;;;10416284;28;62028;-67
2021/10/10 17:15:14;;;;;;;2.40;1.70;;;25.20;38.90;28.20;94624.00;;;;10432257;28;69070;-67
2021/10/10 17:20:15;;;;;;;2.65;1.80;;;25.20;39.30;28.20;94628.00;;;;10432654;28;51999;-67
2021/10/10 17:25:16;;;;;;;2.45;1.63;;;25.30;38.90;28.20;94629.00;;;;10432946;28;73798;-67
2021/10/10 17:30:16;;;;;;;4.15;2.05;;;25.30;38.90;28.20;94643.00;;;;10432262;28;75450;-67
2021/10/10 17:35:18;;;;;;;3.03;1.63;;;25.30;38.90;28.20;94653.00;;;;10428388;28;75695;-67
2021/10/10 17:40:19;;;;;;;2.90;1.90;;;25.30;38.90;28.20;94640.00;;;;10429534;28;45475;-67
2021/10/10 17:45:20;;;;;;;2.90;1.70;;;25.30;38.80;28.30;94650.00;;;;10432635;28;48221;-67
2021/10/10 17:50:21;;;;;;;2.95;1.90;;;25.30;38.80;28.20;94653.00;;;;10431553;28;49121;-67
2021/10/10 17:55:22;;;;;;;3.10;1.50;;;25.40;38.80;28.30;94667.00;;;;10431311;28;55570;-67
2021/10/10 18:00:40;;;;;;;2.45;1.73;;;25.40;38.80;28.30;94672.00;;;;10422472;28;71675;-67
2021/10/10 18:11:04;;;;;;;2.38;1.70;;;25.40;38.80;28.30;94678.00;;;;10466820;28;45308;-67
2021/10/10 18:16:08;;;;;;;2.23;1.60;;;25.50;38.80;28.40;94700.00;;;;10457419;28;45408;-66
2021/10/10 18:21:09;;;;;;;2.50;1.65;;;25.40;38.80;28.30;94693.00;;;;10456641;28;45272;-66
2021/10/10 18:26:11;;;;;;;2.85;1.77;;;25.40;38.70;28.30;94683.00;;;;10451586;28;75650;-67
2021/10/10 18:31:11;;;;;;;3.05;1.70;;;25.40;38.70;28.30;94690.00;;;;10473381;28;74483;-67
2021/10/10 18:36:14;;;;;;;3.17;1.75;;;25.40;38.60;28.30;94695.00;;;;10457070;28;45277;-67
2021/10/10 18:41:15;;;;;;;2.40;1.63;;;25.40;38.70;28.30;94699.00;;;;10463969;28;46260;-66
2021/10/10 18:46:16;;;;;;;3.50;1.80;;;25.40;38.70;28.30;94706.00;;;;10458652;28;46831;-66
2021/10/10 18:51:18;;;;;;;2.08;1.50;;;25.50;38.70;28.30;94714.00;;;;10438635;28;67484;-68
2021/10/10 18:56:19;;;;;;;3.35;1.67;;;25.60;38.70;28.30;94711.00;;;;10419657;28;74529;-67
2021/10/10 19:01:20;;;;;;;2.67;1.67;;;25.40;38.60;28.30;94701.00;;;;10439103;28;56906;-67
2021/10/10 19:06:21;;;;;;;2.33;1.70;;;25.40;38.60;28.30;94716.00;;;;10403841;28;48006;-67
2021/10/10 19:11:21;;;;;;;2.15;1.50;;;25.40;38.60;28.40;94709.00;;;;10420098;28;45579;-67
2021/10/10 19:16:22;;;;;;;1.92;1.30;;;25.40;38.60;28.30;94709.00;;;;10420362;28;46118;-67
2021/10/10 19:21:23;;;;;;;2.42;1.73;;;25.50;38.60;28.30;94695.00;;;;10437717;28;60441;-67
2021/10/10 19:26:23;;;;;;;2.03;1.58;;;25.40;38.50;28.40;94724.00;;;;10402563;28;74066;-67
2021/10/10 19:31:24;;;;;;;2.45;1.70;;;25.40;38.50;28.30;94711.00;;;;10403157;28;74462;-67
2021/10/10 19:36:26;;;;;;;2.15;1.30;;;25.40;38.50;28.40;94707.00;;;;10395312;28;74615;-66
2021/10/10 19:41:27;;;;;;;2.17;1.40;;;25.40;38.50;28.40;94717.00;;;;10420067;28;45349;-66
2021/10/10 19:46:29;;;;;;;1.83;1.50;;;25.40;38.50;28.40;94718.00;;;;10417853;28;75740;-66
2021/10/10 19:51:30;;;;;;;2.33;1.50;;;25.40;38.60;28.40;94725.00;;;;10398803;28;46985;-65
2021/10/10 19:56:31;;;;;;;2.38;1.30;;;25.40;38.40;28.40;94714.00;;;;10398292;28;47258;-66
2021/10/10 20:01:32;;;;;;;1.80;1.50;;;25.40;38.50;28.30;94711.00;;;;10419255;28;45589;-66
2021/10/10 20:06:33;;;;;;;1.92;1.40;;;25.40;38.50;28.30;94714.00;;;;10402252;28;47226;-66
2021/10/10 20:11:34;;;;;;;2.13;1.40;;;25.50;38.50;28.30;94729.00;;;;10418196;28;73532;-67
2021/10/10 20:16:34;;;;;;;2.13;1.30;;;25.40;38.40;28.40;94734.00;;;;10401741;28;46933;-67
2021/10/10 20:21:36;;;;;;;1.80;1.40;;;25.40;38.40;28.40;94725.00;;;;10417868;28;75431;-66
2021/10/10 20:26:37;;;;;;;1.85;1.20;;;25.40;38.40;28.40;94723.00;;;;10401177;28;47212;-66
2021/10/10 20:31:37;;;;;;;1.60;1.38;;;25.40;38.30;28.40;94733.00;;;;10418256;28;47252;-66
2021/10/10 20:36:39;;;;;;;2.45;1.70;;;25.50;38.40;28.40;94726.00;;;;10417575;28;74290;-66
2021/10/10 20:41:39;;;;;;;2.10;1.55;;;25.40;38.60;28.40;94722.00;;;;10417674;28;45330;-66
2021/10/10 20:46:40;;;;;;;1.75;1.45;;;25.30;38.20;28.40;94714.00;;;;10417637;28;45409;-67
2021/10/10 20:51:41;;;;;;;2.70;1.52;;;25.30;38.20;28.30;94729.00;;;;10417948;28;45340;-67
2021/10/10 20:56:43;;;;;;;1.85;1.42;;;25.40;38.30;28.40;94726.00;;;;10416191;28;73932;-67
2021/10/10 21:01:44;;;;;;;2.13;1.52;;;25.30;38.30;28.30;94707.00;;;;10415375;28;75189;-68
2021/10/10 21:06:46;;;;;;;2.22;1.40;;;25.30;38.20;28.30;94701.00;;;;10415575;28;75086;-67
2021/10/10 21:11:46;;;;;;;2.80;1.80;;;25.20;38.20;28.30;94716.00;;;;10400525;28;47675;-67
2021/10/10 21:16:48;;;;;;;2.28;1.67;;;25.20;38.20;28.30;94707.00;;;;10434901;28;45538;-66
2021/10/10 21:21:48;;;;;;;2.65;1.58;;;25.20;38.20;28.20;94708.00;;;;10417376;28;46330;-67
2021/10/10 21:26:51;;;;;;;2.60;1.52;;;25.20;38.20;28.30;94708.00;;;;10395512;22;75387;-66
2021/10/10 21:32:08;;;;;;;1.67;1.30;;;25.20;38.20;28.20;94709.00;;;;10334439;28;47233;-66
2021/10/10 21:37:11;;;;;;;2.15;1.52;;;25.20;38.20;28.20;94716.00;;;;10315833;28;46374;-66
2021/10/10 21:42:12;;;;;;;2.13;1.50;;;25.10;38.20;28.20;94714.00;;;;10325699;28;50161;-66
2021/10/10 21:47:14;;;;;;;2.40;1.50;;;25.20;38.30;28.10;94713.00;;;;10309575;28;75739;-66
2021/10/10 21:52:15;;;;;;;2.00;1.50;;;25.10;38.20;28.10;94711.00;;;;10324826;28;75692;-66
2021/10/10 21:57:15;;;;;;;1.50;1.17;;;25.10;38.20;28.10;94697.00;;;;10325640;28;45344;-66
2021/10/10 22:02:16;;;;;;;1.80;1.42;;;25.00;38.10;28.10;94683.00;;;;10325659;28;46467;-66
2021/10/10 22:07:17;;;;;;;1.75;1.50;;;25.10;38.20;28.10;94675.00;;;;10307588;28;77125;-65
2021/10/10 22:12:18;;;;;;;2.35;1.60;;;25.10;38.20;28.10;94668.00;;;;10327447;28;45297;-65
2021/10/10 22:17:18;;;;;;;2.13;1.55;;;25.00;38.10;28.10;94674.00;;;;10330816;28;75721;-65
2021/10/10 22:22:19;;;;;;;2.10;1.52;;;25.00;38.10;28.10;94670.00;;;;10314774;28;75348;-66
2021/10/10 22:32:20;;;;;;;2.10;1.50;;;25.00;38.10;28.10;94674.00;;;;10331430;28;56366;-66
2021/10/10 22:37:21;;;;;;;2.10;1.50;;;25.00;38.10;28.10;94673.00;;;;10330533;28;74208;-66